createdAt,value
2022-08-11T00:01:15.086Z,19.90
2022-08-11T00:03:53.782Z,19.80
2022-08-11T00:06:36.191Z,19.87
2022-08-11T00:09:06.414Z,19.88
2022-08-11T00:11:36.157Z,19.82
2022-08-11T00:14:05.490Z,19.77
2022-08-11T00:16:33.424Z,19.74
2022-08-11T00:19:00.371Z,19.74
2022-08-11T00:22:02.201Z,19.74
2022-08-11T00:24:15.511Z,19.73
2022-08-11T00:26:48.101Z,19.71
2022-08-11T00:29:15.319Z,19.70
2022-08-11T00:31:52.130Z,19.69
2022-08-11T00:34:22.790Z,19.70
2022-08-11T00:36:54.951Z,19.67
2022-08-11T00:39:28.579Z,19.66
2022-08-11T00:42:18.862Z,19.62
2022-08-11T00:45:03.471Z,19.60
2022-08-11T00:47:35.608Z,19.58
2022-08-11T00:50:05.065Z,19.56
2022-08-11T00:52:57.703Z,19.52
2022-08-11T00:55:47.251Z,19.49
2022-08-11T00:58:37.402Z,19.45
2022-08-11T01:01:15.989Z,19.39
2022-08-11T01:03:54.324Z,19.37
2022-08-11T01:06:58.227Z,19.33
2022-08-11T01:09:46.467Z,19.33
2022-08-11T01:12:39.198Z,19.35
2022-08-11T01:16:00.132Z,19.34
2022-08-11T01:19:09.090Z,19.30
2022-08-11T01:22:07.626Z,19.29
2022-08-11T01:25:19.020Z,19.25
2022-08-11T01:27:48.323Z,19.25
2022-08-11T01:30:47.813Z,19.24
2022-08-11T01:33:33.059Z,19.24
2022-08-11T01:36:42.079Z,19.19
2022-08-11T01:39:18.783Z,19.15
2022-08-11T01:42:16.057Z,19.13
2022-08-11T01:45:03.582Z,19.12
2022-08-11T01:47:54.166Z,19.11
2022-08-11T01:50:33.458Z,19.08
2022-08-11T01:53:28.413Z,19.14
2022-08-11T01:56:27.975Z,19.16
2022-08-11T01:59:10.502Z,19.16
2022-08-11T02:01:37.476Z,19.18
2022-08-11T02:04:12.912Z,19.19
2022-08-11T02:06:54.500Z,19.21
2022-08-11T02:09:29.094Z,19.23
2022-08-11T02:12:14.000Z,19.18
2022-08-11T02:15:05.177Z,19.17
2022-08-11T02:17:50.721Z,19.13
2022-08-11T02:20:46.651Z,19.08
2022-08-11T02:24:04.127Z,19.08
2022-08-11T02:26:36.658Z,18.96
2022-08-11T02:29:42.890Z,19.09
2022-08-11T02:32:48.421Z,19.06
2022-08-11T02:35:19.212Z,19.03
2022-08-11T02:38:17.382Z,19.00
2022-08-11T02:41:40.051Z,18.99
2022-08-11T02:44:20.369Z,18.96
2022-08-11T02:46:55.121Z,18.97
2022-08-11T02:49:59.965Z,18.90
2022-08-11T02:52:45.426Z,18.87
2022-08-11T02:55:48.978Z,18.83
2022-08-11T02:58:31.413Z,18.82
2022-08-11T03:01:13.562Z,18.68
2022-08-11T03:03:51.342Z,18.75
2022-08-11T03:06:23.692Z,18.76
2022-08-11T03:09:03.359Z,18.73
2022-08-11T03:11:48.310Z,18.71
2022-08-11T03:14:39.450Z,18.66
2022-08-11T03:17:20.426Z,18.64
2022-08-11T03:20:05.924Z,18.66
2022-08-11T03:22:38.893Z,18.65
2022-08-11T03:25:18.225Z,18.64
2022-08-11T03:28:26.013Z,18.61
2022-08-11T03:31:25.812Z,18.57
2022-08-11T03:34:07.047Z,18.55
2022-08-11T03:37:16.273Z,18.51
2022-08-11T03:39:52.917Z,18.49
2022-08-11T03:42:42.225Z,18.44
2022-08-11T03:45:17.925Z,18.38
2022-08-11T03:48:06.956Z,18.36
2022-08-11T03:50:53.142Z,18.33
2022-08-11T03:53:52.520Z,18.32
2022-08-11T03:56:38.563Z,18.28
2022-08-11T03:59:10.994Z,18.24
2022-08-11T04:01:55.871Z,18.20
2022-08-11T04:04:35.586Z,18.16
2022-08-11T04:07:29.801Z,18.08
2022-08-11T04:10:11.466Z,18.01
2022-08-11T04:13:28.330Z,17.96
2022-08-11T04:16:16.400Z,17.90
2022-08-11T04:19:11.144Z,17.77
2022-08-11T04:22:02.644Z,17.69
2022-08-11T04:25:02.833Z,17.67
2022-08-11T04:27:47.778Z,17.61
2022-08-11T04:30:33.509Z,17.57
2022-08-11T04:33:39.782Z,17.50
2022-08-11T04:36:09.619Z,17.46
2022-08-11T04:39:28.733Z,17.49
2022-08-11T04:42:36.735Z,17.52
2022-08-11T04:45:38.655Z,17.57
2022-08-11T04:48:35.786Z,17.58
2022-08-11T04:52:03.952Z,17.63
2022-08-11T04:55:22.692Z,17.70
2022-08-11T04:58:31.565Z,17.76
2022-08-11T05:01:42.908Z,17.81
2022-08-11T05:04:52.788Z,17.87
2022-08-11T05:07:45.826Z,17.92
2022-08-11T05:10:39.860Z,17.99
2022-08-11T05:13:26.172Z,18.05
2022-08-11T05:16:18.473Z,18.09
2022-08-11T05:19:12.085Z,18.13
2022-08-11T05:22:05.828Z,18.21
2022-08-11T05:25:00.738Z,18.27
2022-08-11T05:27:57.255Z,18.18
2022-08-11T05:30:48.212Z,18.32
2022-08-11T05:33:42.195Z,18.22
2022-08-11T05:36:27.127Z,18.51
2022-08-11T05:39:17.255Z,18.60
2022-08-11T05:42:02.359Z,18.69
2022-08-11T05:44:49.288Z,18.78
2022-08-11T05:47:44.816Z,18.90
2022-08-11T05:50:33.157Z,18.98
2022-08-11T05:53:21.636Z,19.02
2022-08-11T05:56:09.602Z,19.08
2022-08-11T05:58:42.601Z,19.15
2022-08-11T06:01:11.932Z,19.17
2022-08-11T06:04:14.280Z,19.24
2022-08-11T06:06:51.129Z,19.37
2022-08-11T06:09:30.848Z,19.45
2022-08-11T06:12:01.195Z,19.54
2022-08-11T06:14:29.217Z,19.65
2022-08-11T06:16:59.490Z,19.74
2022-08-11T06:19:46.917Z,19.85
2022-08-11T06:22:19.842Z,19.98
2022-08-11T06:24:59.896Z,19.98
2022-08-11T06:27:29.930Z,20.10
2022-08-11T06:29:59.143Z,20.19
2022-08-11T06:32:32.989Z,20.28
2022-08-11T06:35:21.469Z,20.39
2022-08-11T06:38:10.595Z,20.50
2022-08-11T06:40:41.892Z,20.59
2022-08-11T06:43:22.930Z,20.75
2022-08-11T06:46:04.511Z,20.71
2022-08-11T06:48:35.317Z,20.92
2022-08-11T06:51:14.626Z,20.99
2022-08-11T06:54:03.011Z,21.07
2022-08-11T07:00:01.665Z,21.24
2022-08-11T07:02:34.428Z,21.34
2022-08-11T07:05:37.923Z,21.49
2022-08-11T07:08:38.031Z,21.57
2022-08-11T07:11:46.373Z,21.66
2022-08-11T07:14:38.636Z,21.76
2022-08-11T07:17:11.321Z,21.80
2022-08-11T07:19:59.751Z,22.01
2022-08-11T07:22:49.826Z,22.11
2022-08-11T07:25:36.077Z,22.20
2022-08-11T07:28:30.542Z,22.38
2022-08-11T07:31:03.314Z,22.43
2022-08-11T07:34:08.076Z,22.58
2022-08-11T07:36:35.148Z,22.56
2022-08-11T07:39:02.734Z,22.77
2022-08-11T07:41:34.488Z,22.87
2022-08-11T07:44:08.962Z,22.99
2022-08-11T07:47:00.968Z,23.04
2022-08-11T07:49:48.047Z,23.10
2022-08-11T07:52:27.304Z,23.09
2022-08-11T07:55:02.277Z,23.24
2022-08-11T07:58:14.563Z,23.53
2022-08-11T08:01:02.703Z,23.59
2022-08-11T08:03:54.075Z,23.67
2022-08-11T08:06:41.228Z,23.71
2022-08-11T08:09:27.759Z,23.82
2022-08-11T08:12:14.505Z,23.87
2022-08-11T08:15:01.122Z,23.92
2022-08-11T08:18:09.841Z,23.96
2022-08-11T08:20:38.359Z,24.18
2022-08-11T08:23:06.113Z,24.42
2022-08-11T08:25:36.296Z,24.39
2022-08-11T08:28:15.234Z,24.72
2022-08-11T08:30:51.107Z,24.69
2022-08-11T08:33:26.633Z,24.69
2022-08-11T08:36:12.377Z,24.79
2022-08-11T08:38:41.610Z,24.98
2022-08-11T08:41:10.081Z,25.23
2022-08-11T08:43:48.758Z,25.26
2022-08-11T08:46:20.853Z,25.21
2022-08-11T08:48:48.808Z,25.18
2022-08-11T08:52:02.412Z,25.44
2022-08-11T08:54:25.668Z,25.69
2022-08-11T08:56:55.764Z,25.88
2022-08-11T08:59:26.677Z,26.05
2022-08-11T09:02:13.963Z,26.31
2022-08-11T09:04:42.629Z,26.54
2022-08-11T09:07:15.343Z,26.60
2022-08-11T09:09:48.760Z,26.73
2022-08-11T09:12:16.936Z,26.68
2022-08-11T09:15:05.487Z,26.91
2022-08-11T09:17:40.080Z,27.09
2022-08-11T09:20:14.846Z,27.24
2022-08-11T09:26:11.226Z,27.72
2022-08-11T09:28:38.054Z,27.74
2022-08-11T09:31:06.548Z,27.51
2022-08-11T09:33:33.399Z,27.75
2022-08-11T09:36:20.570Z,27.91
2022-08-11T09:39:05.803Z,27.87
2022-08-11T09:42:00.730Z,27.90
2022-08-11T09:44:39.653Z,28.02
2022-08-11T09:47:15.011Z,28.06
2022-08-11T09:49:44.915Z,28.14
2022-08-11T09:52:14.283Z,28.36
2022-08-11T09:54:42.749Z,28.47
2022-08-11T09:57:33.480Z,28.44
2022-08-11T10:00:09.511Z,28.16
2022-08-11T10:02:44.114Z,28.19
2022-08-11T10:05:33.193Z,28.35
2022-08-11T10:08:01.400Z,28.66
2022-08-11T10:10:29.233Z,28.73
2022-08-11T10:13:04.381Z,28.65
2022-08-11T10:15:38.265Z,28.65
2022-08-11T10:18:27.480Z,28.80
2022-08-11T10:21:11.462Z,28.81
2022-08-11T10:24:00.515Z,28.59
2022-08-11T10:26:54.227Z,28.47
2022-08-11T10:29:49.926Z,28.93
2022-08-11T10:32:58.126Z,28.96
2022-08-11T10:35:28.085Z,28.79
2022-08-11T10:38:08.051Z,28.94
2022-08-11T10:40:38.999Z,29.05
2022-08-11T10:43:10.333Z,29.15
2022-08-11T10:45:57.367Z,28.95
2022-08-11T10:48:26.742Z,29.19
2022-08-11T10:51:13.000Z,29.36
2022-08-11T10:54:03.397Z,29.50
2022-08-11T10:56:57.478Z,29.54
2022-08-11T10:59:27.545Z,29.39
2022-08-11T11:01:55.106Z,28.99
2022-08-11T11:04:35.735Z,29.14
2022-08-11T11:07:13.837Z,29.39
2022-08-11T11:10:02.690Z,29.55
2022-08-11T11:13:02.255Z,29.64
2022-08-11T11:15:49.797Z,29.73
2022-08-11T11:18:22.575Z,29.82
2022-08-11T11:20:55.275Z,29.79
2022-08-11T11:23:41.300Z,29.52
2022-08-11T11:26:27.251Z,29.49
2022-08-11T11:29:31.438Z,29.63
2022-08-11T11:32:33.127Z,29.30
2022-08-11T11:35:18.083Z,29.51
2022-08-11T11:38:04.504Z,29.77
2022-08-11T11:40:33.012Z,29.80
2022-08-11T11:43:00.452Z,29.79
2022-08-11T11:45:27.215Z,29.92
2022-08-11T11:47:56.232Z,30.07
2022-08-11T11:50:31.813Z,30.00
2022-08-11T11:53:01.607Z,29.90
2022-08-11T11:55:29.493Z,30.08
2022-08-11T11:58:18.766Z,30.31
2022-08-11T12:01:05.184Z,30.19
2022-08-11T12:03:33.303Z,30.10
2022-08-11T12:06:00.534Z,29.94
2022-08-11T12:08:28.080Z,29.74
2022-08-11T12:11:20.135Z,29.96
2022-08-11T12:13:49.187Z,30.03
2022-08-11T12:16:34.024Z,30.03
2022-08-11T12:19:05.454Z,30.05
2022-08-11T12:21:34.334Z,30.00
2022-08-11T12:24:21.200Z,29.60
2022-08-11T12:27:15.785Z,29.83
2022-08-11T12:29:35.461Z,29.97
2022-08-11T12:32:06.830Z,29.86
2022-08-11T12:34:33.301Z,29.59
2022-08-11T12:37:05.537Z,29.62
2022-08-11T12:40:10.899Z,29.53
2022-08-11T12:43:08.180Z,29.73
2022-08-11T12:45:38.316Z,29.89
2022-08-11T12:49:00.493Z,30.10
2022-08-11T12:52:11.080Z,29.77
2022-08-11T12:54:44.750Z,29.84
2022-08-11T12:57:37.964Z,29.83
2022-08-11T13:00:27.788Z,29.90
2022-08-11T13:03:14.371Z,29.74
2022-08-11T13:05:46.093Z,29.85
2022-08-11T13:08:15.267Z,29.92
2022-08-11T13:11:01.573Z,29.91
2022-08-11T13:13:54.340Z,29.88
2022-08-11T13:16:17.567Z,29.99
2022-08-11T13:18:44.618Z,30.01
2022-08-11T13:21:20.111Z,29.91
2022-08-11T13:24:00.318Z,29.94
2022-08-11T13:26:43.395Z,29.86
2022-08-11T13:29:21.369Z,29.84
2022-08-11T13:31:48.759Z,29.90
2022-08-11T13:34:17.607Z,29.97
2022-08-11T13:36:45.337Z,30.05
2022-08-11T13:39:13.976Z,30.12
2022-08-11T13:41:44.006Z,30.02
2022-08-11T13:44:16.780Z,30.08
2022-08-11T13:46:45.724Z,29.89
2022-08-11T13:49:16.702Z,29.70
2022-08-11T13:51:44.166Z,29.76
2022-08-11T13:54:22.583Z,29.83
2022-08-11T13:56:54.514Z,29.72
2022-08-11T13:59:23.814Z,29.99
2022-08-11T14:02:20.287Z,29.99
2022-08-11T14:04:57.863Z,29.93
2022-08-11T14:07:35.433Z,29.94
2022-08-11T14:10:04.201Z,29.87
2022-08-11T14:12:52.463Z,29.70
2022-08-11T14:15:25.566Z,29.74
2022-08-11T14:17:57.301Z,29.46
2022-08-11T14:20:39.423Z,29.46
2022-08-11T14:23:10.851Z,29.23
2022-08-11T14:26:01.907Z,28.14
2022-08-11T14:28:36.201Z,27.11
2022-08-11T14:31:08.444Z,26.53
2022-08-11T14:33:58.411Z,26.23
2022-08-11T14:36:28.617Z,26.97
2022-08-11T14:38:55.828Z,26.98
2022-08-11T14:42:10.344Z,27.04
2022-08-11T14:44:50.898Z,27.53
2022-08-11T14:47:24.350Z,27.51
2022-08-11T14:50:10.368Z,27.48
2022-08-11T14:52:43.257Z,27.50
2022-08-11T14:55:30.029Z,27.55
2022-08-11T14:57:57.318Z,27.61
2022-08-11T15:00:25.246Z,27.73
2022-08-11T15:03:12.151Z,27.81
2022-08-11T15:05:56.544Z,28.03
2022-08-11T15:08:54.613Z,28.14
2022-08-11T15:11:43.086Z,28.19
2022-08-11T15:14:12.018Z,28.28
2022-08-11T15:17:00.918Z,28.50
2022-08-11T15:19:30.039Z,28.63
2022-08-11T15:22:28.284Z,28.72
2022-08-11T15:24:55.534Z,28.80
2022-08-11T15:27:42.844Z,28.80
2022-08-11T15:30:33.345Z,28.87
2022-08-11T15:33:24.191Z,28.92
2022-08-11T15:36:10.636Z,28.98
2022-08-11T15:38:44.406Z,29.01
2022-08-11T15:41:34.315Z,28.94
